Time;durP1;ratioP1;P1;durP2;ratioP2;P2;SDS_P1;SDS_P2;PMS_P1;PMS_P2;Temp;Humidity;BMP_temperature;BMP_pressure;BME280_temperature;BME280_humidity;BME280_pressure;Samples;Min_cycle;Max_cycle;Signal;HPM_P1;HPM_P2
2022/12/12 00:01:46;;;;;;;34.78;20.43;;;;;;;-2.61;76.44;95866.05;1821365;77;25780;-75
2022/12/12 00:04:13;;;;;;;33.30;19.48;;;;;;;-2.61;76.48;95864.72;1832436;77;25638;-73
2022/12/12 00:06:40;;;;;;;31.77;16.67;;;;;;;-2.62;76.45;95861.75;1841926;77;27408;-73
2022/12/12 00:09:08;;;;;;;32.53;15.72;;;;;;;-2.64;76.34;95858.94;1820747;77;25381;-75
2022/12/12 00:11:36;;;;;;;136.25;39.85;;;;;;;-2.66;76.22;95857.81;1812147;77;25641;-76
2022/12/12 00:14:03;;;;;;;47.60;21.48;;;;;;;-2.67;76.17;95853.52;1812305;77;25691;-76
2022/12/12 00:16:30;;;;;;;72.08;25.35;;;;;;;-2.67;76.17;95860.13;1812564;77;25444;-77
2022/12/12 00:18:56;;;;;;;88.95;29.57;;;;;;;-2.68;76.25;95849.72;1811986;77;27578;-74
2022/12/12 00:21:27;;;;;;;57.45;21.70;;;;;;;-2.68;76.14;95853.19;1812293;77;25707;-76
2022/12/12 00:23:54;;;;;;;83.22;29.32;;;;;;;-2.73;75.86;95855.49;1812264;77;25671;-74
2022/12/12 00:26:29;;;;;;;96.53;33.80;;;;;;;-2.78;75.80;95849.91;1812195;77;25749;-76
2022/12/12 00:28:57;;;;;;;114.92;37.20;;;;;;;-2.82;75.86;95847.26;1789525;78;25830;-74
2022/12/12 00:31:25;;;;;;;88.58;31.10;;;;;;;-2.86;75.93;95854.34;1786905;79;27371;-73
2022/12/12 00:33:52;;;;;;;40.05;18.45;;;;;;;-2.91;76.04;95853.05;1799605;79;25721;-73
2022/12/12 00:36:23;;;;;;;28.25;14.70;;;;;;;-2.91;76.13;95844.30;1800173;79;25729;-73
2022/12/12 00:38:51;;;;;;;35.38;16.82;;;;;;;-2.96;76.03;95841.33;1800008;79;25731;-73
2022/12/12 00:41:18;;;;;;;45.45;21.23;;;;;;;-3.01;75.95;95844.45;1800058;79;25765;-74
2022/12/12 00:43:45;;;;;;;28.17;15.40;;;;;;;-3.04;75.99;95843.98;1799870;79;28296;-72
2022/12/12 00:46:16;;;;;;;26.00;15.13;;;;;;;-3.08;75.96;95838.69;1799850;79;25772;-74
2022/12/12 00:48:43;;;;;;;24.65;14.35;;;;;;;-3.12;76.08;95839.50;1768913;81;26807;-74
2022/12/12 00:51:14;;;;;;;25.32;14.60;;;;;;;-3.11;76.11;95838.52;1768885;81;25696;-75
2022/12/12 00:53:41;;;;;;;27.05;14.25;;;;;;;-3.09;76.03;95841.82;1768969;81;25829;-73
2022/12/12 00:56:07;;;;;;;26.37;15.08;;;;;;;-3.10;76.01;95838.84;1743596;81;27332;-73
2022/12/12 00:58:34;;;;;;;26.05;15.05;;;;;;;-3.09;76.04;95838.36;1768920;81;25704;-73
2022/12/12 01:01:05;;;;;;;26.70;15.58;;;;;;;-3.10;76.05;95839.34;1768779;81;25712;-73
2022/12/12 01:03:33;;;;;;;30.40;16.60;;;;;;;-3.09;76.11;95834.40;1768702;81;25695;-77
2022/12/12 01:06:00;;;;;;;29.35;17.12;;;;;;;-3.10;76.00;95834.06;1768956;81;25837;-74
2022/12/12 01:08:26;;;;;;;28.70;14.95;;;;;;;-3.11;76.00;95839.01;1760182;81;27503;-75
2022/12/12 01:10:53;;;;;;;26.77;15.43;;;;;;;-3.11;75.92;95842.97;1748971;82;25493;-73
2022/12/12 01:13:20;;;;;;;23.90;14.25;;;;;;;-3.11;75.90;95840.33;1749257;82;25703;-73
2022/12/12 01:15:47;;;;;;;26.55;14.45;;;;;;;-3.13;75.82;95838.34;1749161;82;25856;-76
2022/12/12 01:18:14;;;;;;;23.87;14.18;;;;;;;-3.17;75.72;95838.36;1749343;82;25856;-75
2022/12/12 01:20:41;;;;;;;22.93;14.50;;;;;;;-3.17;75.77;95833.09;1749083;82;27406;-74
2022/12/12 01:23:08;;;;;;;27.65;15.35;;;;;;;-3.16;75.90;95837.38;1749168;82;25197;-73
2022/12/12 01:25:35;;;;;;;27.80;15.13;;;;;;;-3.17;75.95;95833.09;1735164;82;25808;-73
2022/12/12 01:28:02;;;;;;;27.27;15.98;;;;;;;-3.18;75.92;95834.08;1683935;84;25808;-74
2022/12/12 01:30:29;;;;;;;25.00;15.23;;;;;;;-3.19;75.93;95836.38;1666510;84;25833;-77
2022/12/12 01:32:56;;;;;;;25.15;13.80;;;;;;;-3.22;75.93;95835.38;1664096;84;28225;-74
2022/12/12 01:35:24;;;;;;;22.60;14.80;;;;;;;-3.23;75.89;95828.45;1663884;84;25838;-73
2022/12/12 01:37:51;;;;;;;25.50;15.98;;;;;;;-3.25;75.95;95828.61;1663971;84;25773;-73
2022/12/12 01:40:23;;;;;;;33.35;20.68;;;;;;;-3.27;75.97;95834.08;1664117;84;25679;-74
2022/12/12 01:42:50;;;;;;;29.57;18.82;;;;;;;-3.27;76.03;95831.45;1576558;89;25930;-73
2022/12/12 01:46:02;;;;;;;31.77;19.05;;;;;;;-3.26;76.05;95834.38;1590510;89;28288;-73
2022/12/12 01:48:33;;;;;;;29.42;17.35;;;;;;;-3.27;76.07;95844.64;1625564;87;25796;-72
2022/12/12 01:51:07;;;;;;;28.70;18.60;;;;;;;-3.28;76.13;95848.27;1635868;87;25835;-74
2022/12/12 01:53:34;;;;;;;31.17;17.92;;;;;;;-3.29;76.13;95843.97;1635644;87;25886;-74
2022/12/12 01:56:04;;;;;;;28.70;18.45;;;;;;;-3.28;76.19;95845.63;1636033;87;26324;-77
2022/12/12 01:58:32;;;;;;;31.48;19.30;;;;;;;-3.29;76.25;95838.70;1635816;87;27968;-74
2022/12/12 02:01:02;;;;;;;31.77;18.23;;;;;;;-3.25;76.30;95841.81;1635548;87;25872;-74
2022/12/12 02:03:28;;;;;;;34.70;19.62;;;;;;;-3.27;76.30;95838.53;1635832;87;25892;-74
2022/12/12 02:05:59;;;;;;;29.82;18.45;;;;;;;-3.26;76.28;95840.98;1635704;87;25764;-74
2022/12/12 02:08:26;;;;;;;31.37;17.50;;;;;;;-3.26;76.33;95839.66;1635708;87;25806;-73
2022/12/12 02:10:53;;;;;;;28.45;17.82;;;;;;;-3.28;76.27;95838.20;1635343;87;28315;-76
2022/12/12 02:13:27;;;;;;;29.35;15.58;;;;;;;-3.30;76.29;95834.90;1635855;87;25822;-78
2022/12/12 02:16:23;;;;;;;27.27;16.20;;;;;;;-3.30;76.31;95837.05;1635451;87;25840;-78
2022/12/12 02:19:14;;;;;;;26.80;17.40;;;;;;;-3.28;76.39;95836.88;1633348;87;26505;-76
2022/12/12 02:21:55;;;;;;;28.67;16.70;;;;;;;-3.28;76.42;95837.70;1635826;87;25770;-74
2022/12/12 02:24:45;;;;;;;29.82;17.82;;;;;;;-3.28;76.45;95838.20;1631853;87;28364;-74
2022/12/12 02:27:43;;;;;;;33.45;19.00;;;;;;;-3.27;76.54;95830.13;1624319;87;25518;-74
2022/12/12 02:30:22;;;;;;;27.87;17.52;;;;;;;-3.24;76.56;95826.30;1603596;87;25828;-79
2022/12/12 02:33:22;;;;;;;27.17;16.20;;;;;;;-3.24;76.56;95815.75;1606974;87;25821;-72
2022/12/12 02:36:18;;;;;;;24.35;14.47;;;;;;;-3.21;76.56;95814.60;1597001;88;25964;-73
2022/12/12 02:38:58;;;;;;;23.10;13.72;;;;;;;-3.18;76.56;95815.60;1599037;86;27422;-73
2022/12/12 02:41:45;;;;;;;23.20;13.68;;;;;;;-3.12;76.66;95813.11;1586042;89;25774;-73
2022/12/12 02:44:32;;;;;;;20.25;12.88;;;;;;;-3.04;76.67;95810.98;1597551;89;25370;-76
2022/12/12 02:47:07;;;;;;;20.90;12.33;;;;;;;-2.97;76.78;95810.13;1598358;89;25818;-78
2022/12/12 02:49:42;;;;;;;20.48;12.90;;;;;;;-2.87;76.72;95813.91;1598661;89;25913;-73
2022/12/12 02:52:09;;;;;;;22.00;12.75;;;;;;;-2.81;76.63;95802.70;1595905;89;27402;-73
2022/12/12 02:54:37;;;;;;;22.52;12.70;;;;;;;-2.76;76.58;95803.00;1587425;89;25994;-75
2022/12/12 02:57:13;;;;;;;21.02;11.93;;;;;;;-2.72;76.59;95801.68;1598278;89;25794;-74
2022/12/12 02:59:44;;;;;;;20.55;12.98;;;;;;;-2.65;76.54;95801.32;1596512;89;25789;-77
2022/12/12 03:02:37;;;;;;;20.70;12.65;;;;;;;-2.60;76.48;95802.97;1579949;89;25823;-74
2022/12/12 03:08:31;;;;;;;22.30;12.47;;;;;;;-2.45;76.37;95807.56;1623014;87;25778;-73
2022/12/12 03:11:03;;;;;;;19.55;12.43;;;;;;;-2.46;76.17;95812.52;1635938;87;25492;-75
2022/12/12 03:13:50;;;;;;;23.73;13.80;;;;;;;-2.50;76.12;95812.02;1635498;85;25812;-74
2022/12/12 03:16:37;;;;;;;22.75;13.03;;;;;;;-2.48;76.06;95807.89;1631407;85;25933;-75
2022/12/12 03:19:18;;;;;;;18.48;12.45;;;;;;;-2.56;75.93;95810.89;1709254;81;27593;-74
2022/12/12 03:22:23;;;;;;;21.00;12.28;;;;;;;-2.59;75.96;95812.55;1699700;84;25437;-74
2022/12/12 03:24:58;;;;;;;25.20;14.40;;;;;;;-2.58;76.01;95809.41;1702967;84;25749;-74
2022/12/12 03:27:52;;;;;;;23.55;14.00;;;;;;;-2.56;76.04;95812.72;1700514;84;26496;-74
2022/12/12 03:30:20;;;;;;;21.30;12.28;;;;;;;-2.56;76.03;95817.50;1700514;84;25708;-74
2022/12/12 03:33:06;;;;;;;22.87;13.40;;;;;;;-2.57;75.94;95817.17;1703696;84;27675;-76
2022/12/12 03:35:37;;;;;;;22.52;12.58;;;;;;;-2.58;75.97;95812.05;1647836;86;25850;-74
2022/12/12 03:38:09;;;;;;;23.30;13.60;;;;;;;-2.57;75.87;95811.06;1597311;89;25806;-72
2022/12/12 03:40:46;;;;;;;17.73;11.57;;;;;;;-2.59;75.84;95810.40;1593842;89;25773;-73
2022/12/12 03:43:21;;;;;;;17.80;11.45;;;;;;;-2.57;75.83;95812.38;1543675;92;25756;-73
2022/12/12 03:45:56;;;;;;;19.92;11.75;;;;;;;-2.57;75.76;95810.56;1496768;95;28247;-74
2022/12/12 03:48:34;;;;;;;17.02;10.75;;;;;;;-2.58;75.63;95810.73;1494726;95;25980;-73
2022/12/12 03:51:08;;;;;;;19.40;11.68;;;;;;;-2.58;75.59;95808.92;1473915;96;26380;-73
2022/12/12 03:53:48;;;;;;;18.42;11.25;;;;;;;-2.63;75.37;95805.12;1473425;97;26532;-74
2022/12/12 03:56:34;;;;;;;19.30;11.68;;;;;;;-2.66;75.34;95807.63;1473885;97;25904;-74
2022/12/12 03:59:11;;;;;;;17.30;10.88;;;;;;;-2.63;75.36;95810.40;1458010;96;27444;-74
2022/12/12 04:01:52;;;;;;;18.85;11.65;;;;;;;-2.62;75.33;95809.41;1469524;96;26057;-75
2022/12/12 04:04:51;;;;;;;20.48;12.50;;;;;;;-2.64;75.21;95804.30;1447444;98;25925;-75
2022/12/12 04:07:22;;;;;;;18.32;11.03;;;;;;;-2.60;75.23;95800.33;1447433;98;26450;-75
2022/12/12 04:12:58;;;;;;;19.23;11.78;;;;;;;-2.68;74.83;95799.53;1447346;98;28511;-73
2022/12/12 04:15:45;;;;;;;21.20;12.85;;;;;;;-2.67;75.05;95800.69;1425842;99;25602;-73
2022/12/12 04:18:49;;;;;;;23.47;13.13;;;;;;;-2.62;75.00;95804.95;1425672;99;25875;-74
2022/12/12 04:32:01;;;;;;;;;;;;;;;;;;;;;
2022/12/12 04:35:35;;;;;;;19.80;13.32;;;;;;;-2.55;74.74;95808.59;1261692;111;26025;-74
2022/12/12 04:38:06;;;;;;;23.02;14.13;;;;;;;-2.58;74.79;95808.09;1270813;111;26137;-75
2022/12/12 04:40:38;;;;;;;22.15;13.45;;;;;;;-2.58;74.68;95805.45;1291878;108;25947;-74
2022/12/12 04:43:09;;;;;;;18.77;11.80;;;;;;;-2.59;74.68;95806.44;1291438;109;26984;-75
2022/12/12 04:45:41;;;;;;;19.35;12.10;;;;;;;-2.57;74.50;95819.81;1291491;109;25989;-75
2022/12/12 04:48:12;;;;;;;14.63;8.50;;;;;;;-2.66;74.47;95811.59;1293654;109;26248;-76
2022/12/12 04:50:41;;;;;;;14.53;9.30;;;;;;;-2.68;74.51;95814.06;1291987;109;25941;-77
2022/12/12 04:53:12;;;;;;;19.50;12.80;;;;;;;-2.70;74.59;95814.72;1293660;109;25576;-74
2022/12/12 04:55:43;;;;;;;20.08;13.10;;;;;;;-2.67;74.71;95818.36;1368265;100;27593;-74
2022/12/12 04:58:11;;;;;;;20.30;12.60;;;;;;;-2.65;74.83;95825.09;1459974;97;25898;-73
2022/12/12 05:00:51;;;;;;;22.52;11.97;;;;;;;-2.66;74.73;95823.48;1473457;91;25916;-76
2022/12/12 05:03:49;;;;;;;21.37;12.88;;;;;;;-2.66;74.69;95826.12;1521248;93;26318;-74
2022/12/12 05:06:21;;;;;;;20.25;12.95;;;;;;;-2.68;74.68;95824.13;1542105;92;25876;-78
2022/12/12 05:08:51;;;;;;;25.80;14.55;;;;;;;-2.71;74.67;95824.95;1541723;92;27430;-74
2022/12/12 05:11:20;;;;;;;25.75;15.30;;;;;;;-2.71;74.77;95821.82;1540364;91;25850;-74
2022/12/12 05:13:47;;;;;;;23.83;14.73;;;;;;;-2.73;74.71;95826.44;1563192;90;25833;-79
2022/12/12 05:16:34;;;;;;;27.02;15.20;;;;;;;-2.72;74.79;95826.77;1563278;90;25871;-75
2022/12/12 05:19:01;;;;;;;21.02;13.62;;;;;;;-2.71;74.81;95825.78;1578042;90;26701;-74
2022/12/12 05:21:28;;;;;;;26.77;15.03;;;;;;;-2.70;74.79;95826.11;1581851;90;27477;-77
2022/12/12 05:23:54;;;;;;;25.55;14.60;;;;;;;-2.68;74.85;95825.45;1582006;90;25858;-73
2022/12/12 05:26:31;;;;;;;22.20;13.22;;;;;;;-2.70;74.82;95819.51;1581984;90;25936;-73
2022/12/12 05:28:58;;;;;;;23.10;14.10;;;;;;;-2.74;74.73;95816.04;1582146;90;25996;-74
2022/12/12 05:31:25;;;;;;;20.00;11.68;;;;;;;-2.73;74.84;95826.44;1570928;90;25830;-75
2022/12/12 05:33:53;;;;;;;21.00;11.45;;;;;;;-2.70;74.84;95826.11;1575579;90;27479;-74
2022/12/12 05:36:20;;;;;;;19.62;11.78;;;;;;;-2.70;74.70;95827.44;1581892;90;25969;-75
2022/12/12 05:38:47;;;;;;;17.62;11.18;;;;;;;-2.74;74.58;95827.92;1576873;90;25902;-73
2022/12/12 05:41:14;;;;;;;25.23;16.93;;;;;;;-2.79;74.58;95825.80;1622836;87;25772;-73
2022/12/12 05:43:40;;;;;;;26.62;16.82;;;;;;;-2.80;74.64;95822.83;1636399;87;25562;-75
2022/12/12 05:46:08;;;;;;;26.45;17.45;;;;;;;-2.77;74.68;95824.29;1624011;88;27088;-77
2022/12/12 05:48:34;;;;;;;27.73;16.37;;;;;;;-2.73;74.80;95829.58;1641313;87;26586;-74
2022/12/12 05:51:02;;;;;;;30.12;16.25;;;;;;;-2.69;74.76;95822.98;1632481;87;25882;-75
2022/12/12 05:53:29;;;;;;;31.42;15.88;;;;;;;-2.64;74.76;95824.60;1636719;87;25756;-74
2022/12/12 05:55:56;;;;;;;23.77;13.58;;;;;;;-2.61;74.71;95829.55;1646630;85;25819;-73
2022/12/12 05:58:23;;;;;;;23.47;13.60;;;;;;;-2.60;74.67;95832.03;1678035;84;28313;-74
2022/12/12 06:00:52;;;;;;;21.95;13.32;;;;;;;-2.59;74.63;95823.12;1713781;81;25813;-75
2022/12/12 06:03:18;;;;;;;22.67;14.05;;;;;;;-2.57;74.65;95836.98;1751665;81;25786;-74
2022/12/12 06:05:45;;;;;;;21.25;13.62;;;;;;;-2.54;74.68;95832.66;1747124;81;25737;-73
2022/12/12 06:08:12;;;;;;;23.07;14.18;;;;;;;-2.54;74.59;95839.80;1748817;81;25774;-73
2022/12/12 06:10:39;;;;;;;20.43;12.75;;;;;;;-2.52;74.61;95842.23;1750353;80;28236;-76
2022/12/12 06:13:06;;;;;;;21.85;13.78;;;;;;;-2.54;74.59;95841.11;1761818;79;26056;-75
2022/12/12 06:15:32;;;;;;;25.02;14.43;;;;;;;-2.56;74.62;95837.81;1799899;77;25742;-73
2022/12/12 06:17:59;;;;;;;24.95;14.23;;;;;;;-2.54;74.67;95844.55;1794869;77;26428;-77
2022/12/12 06:20:26;;;;;;;27.90;14.75;;;;;;;-2.54;74.69;95841.91;1794977;77;26140;-76
2022/12/12 06:22:52;;;;;;;30.25;14.95;;;;;;;-2.50;74.74;95847.69;1794378;77;28299;-73
2022/12/12 06:25:19;;;;;;;32.35;15.53;;;;;;;-2.46;74.73;95850.33;1794354;77;25187;-77
2022/12/12 06:27:46;;;;;;;32.93;16.02;;;;;;;-2.45;74.69;95847.20;1831636;77;25676;-73
2022/12/12 06:30:13;;;;;;;33.53;17.77;;;;;;;-2.42;74.69;95849.51;1824035;77;25734;-75
2022/12/12 06:32:40;;;;;;;31.33;16.10;;;;;;;-2.42;74.61;95852.15;1827200;77;25717;-76
2022/12/12 06:35:08;;;;;;;29.02;15.00;;;;;;;-2.42;74.56;95855.63;1828078;77;27343;-74
2022/12/12 06:37:35;;;;;;;34.90;17.80;;;;;;;-2.42;74.52;95864.05;1823623;77;26300;-73
2022/12/12 06:40:03;;;;;;;30.77;15.72;;;;;;;-2.43;74.63;95857.10;1818310;77;25637;-75
2022/12/12 06:42:30;;;;;;;30.85;15.30;;;;;;;-2.45;74.55;95851.16;1807606;77;25722;-75
2022/12/12 06:44:57;;;;;;;28.73;15.28;;;;;;;-2.46;74.58;95859.58;1794853;77;25729;-74
2022/12/12 06:47:23;;;;;;;25.43;14.53;;;;;;;-2.43;74.62;95861.06;1794842;77;27346;-73
2022/12/12 06:49:50;;;;;;;23.95;14.58;;;;;;;-2.44;74.54;95863.37;1828019;77;26085;-75
2022/12/12 06:52:17;;;;;;;27.05;15.28;;;;;;;-2.43;74.64;95864.54;1794738;77;25709;-76
2022/12/12 06:54:43;;;;;;;27.07;14.73;;;;;;;-2.39;74.66;95867.64;1828234;77;25668;-73
2022/12/12 06:57:10;;;;;;;24.52;14.60;;;;;;;-2.39;74.61;95863.19;1842102;77;25668;-77
2022/12/12 06:59:37;;;;;;;26.20;14.33;;;;;;;-2.37;74.64;95863.84;1812732;77;28236;-77
2022/12/12 07:02:04;;;;;;;24.15;14.00;;;;;;;-2.35;74.67;95871.61;1804840;77;25684;-73
2022/12/12 07:04:30;;;;;;;22.20;13.50;;;;;;;-2.34;74.63;95864.84;1827798;77;25691;-76
2022/12/12 07:06:57;;;;;;;24.47;13.83;;;;;;;-2.34;74.63;95866.66;1794756;77;25654;-73
2022/12/12 07:09:24;;;;;;;24.32;13.80;;;;;;;-2.33;74.59;95870.95;1805140;77;25862;-77
2022/12/12 07:11:50;;;;;;;25.40;14.87;;;;;;;-2.31;74.63;95871.11;1820699;77;28201;-76
2022/12/12 07:14:17;;;;;;;25.68;15.32;;;;;;;-2.32;74.52;95867.31;1831203;77;25432;-74
2022/12/12 07:16:44;;;;;;;26.42;16.02;;;;;;;-2.33;74.62;95867.81;1798218;77;25678;-74
2022/12/12 07:19:10;;;;;;;29.50;17.52;;;;;;;-2.33;74.59;95872.27;1798092;77;26466;-73
2022/12/12 07:21:38;;;;;;;28.10;16.30;;;;;;;-2.31;74.70;95879.05;1798180;77;25706;-77
2022/12/12 07:24:05;;;;;;;27.25;17.23;;;;;;;-2.27;74.76;95877.69;1831265;77;28260;-73
2022/12/12 07:26:31;;;;;;;26.65;15.60;;;;;;;-2.23;74.79;95872.41;1798062;77;25806;-73
2022/12/12 07:28:58;;;;;;;26.80;16.30;;;;;;;-2.16;74.87;95879.14;1831268;77;25740;-73
2022/12/12 07:31:25;;;;;;;29.92;16.55;;;;;;;-2.09;74.82;95868.73;1798220;77;25746;-73
2022/12/12 07:36:21;;;;;;;27.82;14.95;;;;;;;-2.11;74.63;95875.50;1783837;79;27435;-73
2022/12/12 07:38:48;;;;;;;29.55;17.25;;;;;;;-2.13;74.56;95884.09;1784076;79;26460;-74
2022/12/12 07:41:17;;;;;;;31.90;18.32;;;;;;;-2.10;74.62;95882.44;1747541;80;25793;-78
2022/12/12 07:43:45;;;;;;;35.68;20.12;;;;;;;-2.09;74.53;95878.81;1766628;79;26485;-72
2022/12/12 07:46:20;;;;;;;37.13;21.87;;;;;;;-2.07;74.64;95880.79;1784000;79;25802;-73
2022/12/12 07:48:47;;;;;;;40.95;23.02;;;;;;;-1.99;74.78;95878.11;1669940;85;26874;-76
2022/12/12 07:51:15;;;;;;;35.80;20.97;;;;;;;-1.90;74.82;95891.62;1665892;84;25764;-74
2022/12/12 07:53:42;;;;;;;35.50;20.75;;;;;;;-1.86;74.75;95885.00;1667709;84;25830;-74
2022/12/12 07:56:12;;;;;;;40.12;21.07;;;;;;;-1.82;74.76;95884.17;1667684;86;26666;-75
2022/12/12 07:58:39;;;;;;;36.95;20.17;;;;;;;-1.78;74.70;95887.27;1667728;84;26056;-74
2022/12/12 08:01:19;;;;;;;31.33;18.30;;;;;;;-1.73;74.73;95888.92;1667575;85;27380;-76
2022/12/12 08:03:47;;;;;;;35.95;19.92;;;;;;;-1.85;74.29;95888.47;1635484;87;25813;-76
2022/12/12 08:06:15;;;;;;;36.00;20.40;;;;;;;-1.98;74.40;95887.69;1635587;87;25944;-73
2022/12/12 08:08:43;;;;;;;34.92;19.95;;;;;;;-1.98;74.57;95886.86;1635548;87;25730;-74
2022/12/12 08:11:13;;;;;;;36.48;21.37;;;;;;;-1.98;74.60;95887.69;1648959;86;25646;-78
2022/12/12 08:13:43;;;;;;;43.05;23.00;;;;;;;-2.00;74.62;95892.81;1653834;86;27424;-74
2022/12/12 08:16:17;;;;;;;35.35;20.45;;;;;;;-2.00;74.64;95890.17;1653800;86;25774;-74
2022/12/12 08:18:43;;;;;;;43.40;24.32;;;;;;;-2.01;74.56;95891.16;1653876;86;25869;-75
2022/12/12 08:21:12;;;;;;;36.23;21.33;;;;;;;-1.99;74.77;95904.55;1653685;86;25779;-78
2022/12/12 08:23:40;;;;;;;36.77;20.90;;;;;;;-1.98;74.59;95900.91;1653563;86;25957;-79
2022/12/12 08:26:11;;;;;;;34.90;19.82;;;;;;;-2.01;74.61;95898.60;1653849;86;27470;-79
2022/12/12 08:28:40;;;;;;;33.90;18.85;;;;;;;-1.99;74.59;95899.27;1653738;86;25808;-74
2022/12/12 08:31:08;;;;;;;30.48;17.07;;;;;;;-2.02;74.60;95899.59;1653907;86;25883;-74
2022/12/12 08:33:36;;;;;;;34.05;17.40;;;;;;;-1.97;74.70;95907.86;1615369;88;25818;-76
2022/12/12 08:36:14;;;;;;;28.92;16.67;;;;;;;-1.89;74.76;95901.20;1613286;88;25758;-74
2022/12/12 08:38:41;;;;;;;26.62;15.95;;;;;;;-1.88;74.53;95903.35;1535731;93;27396;-78
2022/12/12 08:41:09;;;;;;;28.85;16.93;;;;;;;-1.93;74.43;95901.20;1535698;93;25852;-75
2022/12/12 08:43:37;;;;;;;28.00;15.50;;;;;;;-1.90;74.56;95904.84;1535611;93;25805;-78
2022/12/12 08:46:06;;;;;;;28.92;16.52;;;;;;;-1.89;74.47;95902.53;1613292;87;25926;-76
2022/12/12 08:48:32;;;;;;;28.17;15.70;;;;;;;-1.86;74.47;95905.34;1622884;87;25754;-74
2022/12/12 08:50:59;;;;;;;31.07;17.20;;;;;;;-1.87;74.37;95901.03;1621001;87;27222;-74
2022/12/12 08:53:28;;;;;;;33.80;20.40;;;;;;;-1.91;74.49;95909.80;1639892;87;25786;-74
2022/12/12 08:55:55;;;;;;;36.13;21.15;;;;;;;-1.87;74.41;95903.19;1621145;87;25912;-74
2022/12/12 08:58:22;;;;;;;39.75;22.20;;;;;;;-1.78;74.53;95903.14;1621079;87;25866;-74
2022/12/12 09:00:49;;;;;;;29.75;17.42;;;;;;;-1.75;74.31;95897.02;1614659;88;25898;-74
2022/12/12 09:03:17;;;;;;;25.17;15.55;;;;;;;-1.71;74.35;95901.48;1621362;88;27638;-73
2022/12/12 09:05:45;;;;;;;27.62;15.90;;;;;;;-1.63;74.35;95897.47;1621344;88;25847;-74
2022/12/12 09:08:13;;;;;;;25.27;14.80;;;;;;;-1.51;74.53;95896.08;1621390;88;26625;-74
2022/12/12 09:10:42;;;;;;;28.47;15.05;;;;;;;-1.45;74.14;95899.38;1627302;86;25778;-76
2022/12/12 09:13:10;;;;;;;30.40;16.55;;;;;;;-1.43;74.16;95904.47;1612948;88;25796;-74
2022/12/12 09:15:37;;;;;;;21.02;13.30;;;;;;;-1.38;74.08;95892.37;1640658;87;27656;-74
2022/12/12 09:18:05;;;;;;;27.42;14.68;;;;;;;-1.35;74.05;95900.47;1611545;88;25784;-74
2022/12/12 09:20:31;;;;;;;29.37;16.65;;;;;;;-1.34;73.94;95897.66;1635558;87;25851;-73
2022/12/12 09:22:58;;;;;;;33.90;19.10;;;;;;;-1.27;74.09;95896.44;1636167;87;25741;-78
2022/12/12 09:25:27;;;;;;;30.45;18.42;;;;;;;-1.26;73.91;95894.13;1626563;87;25857;-74
2022/12/12 09:27:53;;;;;;;28.47;16.95;;;;;;;-1.21;73.89;95888.61;1657498;85;27470;-74
2022/12/12 09:30:20;;;;;;;26.62;16.05;;;;;;;-1.22;73.77;95896.25;1651245;84;26040;-74
2022/12/12 09:32:47;;;;;;;46.18;23.77;;;;;;;-1.14;73.78;95894.87;1660028;84;25862;-74
2022/12/12 09:35:14;;;;;;;32.58;18.23;;;;;;;-1.06;73.76;95895.80;1660195;84;25665;-76
2022/12/12 09:37:41;;;;;;;31.17;17.80;;;;;;;-1.01;73.65;95898.26;1678328;84;25757;-73
2022/12/12 09:40:14;;;;;;;31.25;17.10;;;;;;;-0.98;73.50;95895.77;1685650;84;27450;-76
2022/12/12 09:42:47;;;;;;;28.62;17.02;;;;;;;-0.93;73.53;95892.89;1752051;80;26068;-74
2022/12/12 09:45:14;;;;;;;29.48;16.87;;;;;;;-0.88;73.42;95884.42;1775538;80;25707;-74
2022/12/12 09:47:57;;;;;;;31.00;17.30;;;;;;;-0.86;73.26;95886.41;1768143;80;25734;-74
2022/12/12 09:50:37;;;;;;;31.42;18.15;;;;;;;-0.89;73.09;95885.42;1770008;80;25741;-77
2022/12/12 09:53:11;;;;;;;31.00;17.00;;;;;;;-0.91;73.04;95888.74;1778274;80;27591;-74
2022/12/12 09:56:02;;;;;;;27.65;17.10;;;;;;;-0.92;73.01;95893.22;1678952;84;25751;-74
2022/12/12 09:58:43;;;;;;;31.25;17.57;;;;;;;-1.01;72.80;95888.16;1688557;84;25847;-74
2022/12/12 10:01:18;;;;;;;30.40;17.90;;;;;;;-1.05;72.83;95892.98;1690288;84;25764;-74
2022/12/12 10:04:05;;;;;;;32.28;18.85;;;;;;;-1.04;72.86;95893.80;1686448;84;25774;-77
2022/12/12 10:06:49;;;;;;;34.33;19.48;;;;;;;-1.08;72.83;95893.33;1689457;84;28270;-74
2022/12/12 10:09:57;;;;;;;31.93;18.70;;;;;;;-1.07;72.83;95894.97;1620593;88;25827;-78
2022/12/12 10:12:25;;;;;;;34.83;19.17;;;;;;;-1.07;72.82;95894.15;1618207;88;25888;-75
2022/12/12 10:15:06;;;;;;;34.27;19.82;;;;;;;-1.07;72.82;95896.30;1622321;88;26525;-74
2022/12/12 10:17:37;;;;;;;31.07;17.67;;;;;;;-1.11;72.75;95894.52;1568421;91;25919;-74
2022/12/12 10:20:21;;;;;;;24.67;13.83;;;;;;;-1.17;72.73;95893.89;1546549;92;28239;-74
2022/12/12 10:23:08;;;;;;;31.37;18.40;;;;;;;-1.24;72.62;95898.75;1569499;91;25748;-74
2022/12/12 10:25:58;;;;;;;33.92;18.23;;;;;;;-1.27;72.70;95898.59;1568693;91;25866;-74
2022/12/12 10:28:29;;;;;;;29.18;16.80;;;;;;;-1.28;72.71;95892.97;1567078;91;26499;-74
2022/12/12 10:31:19;;;;;;;24.60;14.07;;;;;;;-1.28;72.75;95896.94;1565489;91;25906;-74
2022/12/12 10:34:10;;;;;;;29.95;18.00;;;;;;;-1.27;72.69;95895.94;1560688;91;27467;-73
2022/12/12 10:36:51;;;;;;;28.77;17.50;;;;;;;-1.27;72.74;95889.33;1495127;94;25757;-78
2022/12/12 10:39:44;;;;;;;29.80;18.48;;;;;;;-1.29;72.56;95889.99;1493834;94;25817;-74
2022/12/12 10:42:25;;;;;;;33.75;20.02;;;;;;;-1.36;72.53;95893.03;1496219;94;26489;-78
2022/12/12 10:45:36;;;;;;;35.30;19.75;;;;;;;-1.37;72.56;95891.38;1484777;95;25882;-74
2022/12/12 10:48:03;;;;;;;36.60;20.75;;;;;;;-1.38;72.61;95889.72;1508031;93;27429;-75
2022/12/12 10:50:37;;;;;;;43.80;23.15;;;;;;;-1.41;72.59;95887.42;1513341;93;25700;-77
2022/12/12 10:53:08;;;;;;;42.25;23.07;;;;;;;-1.39;72.67;95890.72;1564990;89;25914;-74
2022/12/12 10:55:52;;;;;;;38.30;21.82;;;;;;;-1.39;72.63;95890.72;1585292;89;25767;-78
2022/12/12 10:58:25;;;;;;;41.28;21.30;;;;;;;-1.36;72.73;95893.03;1585243;89;25768;-77
2022/12/12 11:01:02;;;;;;;47.85;24.80;;;;;;;-1.26;72.85;95888.83;1543346;91;27346;-75
2022/12/12 11:03:37;;;;;;;42.65;22.35;;;;;;;-1.18;72.95;95889.59;1556678;92;25783;-78
2022/12/12 11:06:12;;;;;;;50.08;24.00;;;;;;;-1.10;72.87;95889.55;1521668;94;25892;-74
2022/12/12 11:08:53;;;;;;;41.80;22.15;;;;;;;-1.07;72.71;95888.85;1497957;95;26531;-74
2022/12/12 11:11:23;;;;;;;50.88;26.02;;;;;;;-1.03;72.72;95887.02;1507861;94;25872;-74
2022/12/12 11:14:02;;;;;;;49.20;27.07;;;;;;;-1.02;72.62;95893.13;1545151;91;27473;-79
2022/12/12 11:16:42;;;;;;;37.13;21.93;;;;;;;-0.96;72.72;95889.77;1593063;88;25838;-77
2022/12/12 11:19:19;;;;;;;33.88;19.70;;;;;;;-0.95;72.63;95888.27;1593269;88;26118;-73
2022/12/12 11:21:47;;;;;;;34.63;20.80;;;;;;;-0.94;72.50;95894.39;1593144;88;25864;-75
2022/12/12 11:24:21;;;;;;;36.50;20.48;;;;;;;-0.94;72.59;95893.06;1585532;88;25752;-74
2022/12/12 11:27:04;;;;;;;33.23;20.52;;;;;;;-0.92;72.57;95888.42;1583195;89;28290;-77
2022/12/12 11:29:42;;;;;;;34.43;19.32;;;;;;;-0.88;72.59;95891.05;1558315;92;26644;-74
2022/12/12 11:32:18;;;;;;;36.70;21.95;;;;;;;-0.88;72.53;95887.08;1541139;92;26090;-75
2022/12/12 11:34:57;;;;;;;32.98;19.95;;;;;;;-0.86;72.60;95889.05;1493379;95;26314;-76
2022/12/12 11:37:29;;;;;;;32.17;19.70;;;;;;;-0.84;72.52;95887.02;1495084;94;25725;-75
2022/12/12 11:39:56;;;;;;;32.10;18.23;;;;;;;-0.83;72.58;95893.97;1496777;95;27772;-77
2022/12/12 11:42:31;;;;;;;35.68;20.20;;;;;;;-0.81;72.41;95894.63;1497050;95;25906;-74
2022/12/12 11:45:15;;;;;;;33.78;21.82;;;;;;;-0.84;72.55;95897.62;1506323;94;25846;-74
2022/12/12 11:47:45;;;;;;;39.70;21.40;;;;;;;-0.79;72.71;95892.13;1487824;95;26675;-74
2022/12/12 11:50:28;;;;;;;39.90;22.17;;;;;;;-0.74;72.70;95891.60;1489032;95;25869;-76
2022/12/12 11:53:00;;;;;;;45.10;24.65;;;;;;;-0.73;72.72;95895.91;1505281;94;28158;-76
2022/12/12 11:55:44;;;;;;;55.58;26.27;;;;;;;-0.69;72.68;95895.84;1504240;94;25887;-75
2022/12/12 11:58:25;;;;;;;47.53;24.20;;;;;;;-0.75;72.61;95902.70;1438671;97;25348;-76
2022/12/12 12:01:14;;;;;;;45.63;25.32;;;;;;;-0.73;72.84;95899.87;1444799;99;26280;-76
2022/12/12 12:04:08;;;;;;;45.30;27.05;;;;;;;-0.65;72.89;95902.45;1454043;96;27164;-74
2022/12/12 12:07:02;;;;;;;40.40;23.77;;;;;;;-0.62;72.88;95903.92;1466051;97;27417;-74